• Join FlightAware (Why Join?)
  • Login
  • US Flag 
02:03AM EDT


 

Airport Tracker/Info


-or-


 

Live Flight TrackerFlight Track Log ✈ N244A ✈ 03-Jul-2013 ✈ KAPF - KGSP

Flight Track Log - Related Links

Times and Time Zones

All times are in EDT time to prevent confusion due to time zone crossing. See the N244A flight status page for this flight to view local times or setup timezone preferences in your user account.

Time Position Orientation Groundspeed Altitude Reporting Facility
EDT Latitude Longitude Course Direction KTS MPH feet Rate Location/Type
04:07PM 26.2847 -81.6806 21° North 247 284 5,000  Level Miami Center
04:08PM 26.3700 -81.6956 351° North 277 319 8,300 3,060 Climbing Miami Center
04:09PM 26.4611 -81.7156 349° North 316 364 11,200 2,820 Climbing Miami Center
04:10PM 26.5564 -81.7381 348° North 340 391 14,000 2,760 Climbing Miami Center
04:11PM 26.5837 -81.2802 46° Northeast  Level FlightAware Approximate
04:11PM 26.6567 -81.7353 North 350 403 16,800  Level Miami Center
04:12PM 26.7558 -81.7092 13° North 354 407 19,000 2,160 Climbing Miami Center
04:13PM 26.8544 -81.6878 11° North 354 407 21,200 2,100 Climbing Miami Center
04:14PM 26.9575 -81.6686 North 354 407 23,300 1,800 Climbing Miami Center
04:15PM 27.0606 -81.6472 10° North 364 419 24,800 1,260 Climbing Miami Center
04:16PM 27.1678 -81.6236 11° North 380 437 25,900 1,200 Climbing Miami Center
04:17PM 27.2767 -81.6117 North 386 444 27,300 1,800 Climbing Miami Center
04:18PM 27.3639 -81.5639 26° Northeast 380 437 29,600 1,800 Climbing Miami Center
04:19PM 27.4694 -81.5239 19° North 366 421 31,000 840 Climbing Miami Center
04:20PM 27.5781 -81.5236 360° North 369 425 31,300 660 Climbing Miami Center
04:21PM 27.6908 -81.5189 North 390 449 32,400 1,080 Climbing Miami Center
04:22PM 27.7892 -81.5086 North 395 455 33,500 780 Climbing Miami Center
04:23PM 27.9128 -81.4997 North 400 460 34,000 600 Climbing Miami Center
04:24PM 28.0272 -81.5044 358° North 406 467 34,800 660 Climbing Miami Center
04:25PM 28.1275 -81.5061 359° North 406 467 35,400 600 Climbing Miami Center
04:26PM 28.2422 -81.5061 360° North 406 467 36,100 600 Climbing Miami Center
04:27PM 28.3589 -81.5064 360° North 406 467 36,600 360 Climbing Miami Center
04:28PM 28.5203 -81.5081 359° North 410 472 37,000 120 Climbing Jacksonville Center
04:29PM 28.6392 -81.5064 North 415 478 37,000  Level Jacksonville Center
04:30PM 28.7622 -81.5072 360° North 426 490 37,000  Level Jacksonville Center
04:31PM 28.8853 -81.5078 360° North 431 496 37,000  Level Jacksonville Center
04:32PM 29.0106 -81.5083 360° North 441 507 37,000  Level Jacksonville Center
04:33PM 29.1317 -81.5089 360° North 441 507 37,000  Level Jacksonville Center
04:34PM 29.2656 -81.5286 353° North 436 502 37,000  Level Jacksonville Center
04:35PM 29.3908 -81.5483 352° North 441 507 37,000  Level Jacksonville Center
04:36PM 29.5144 -81.5656 353° North 447 514 37,000  Level Jacksonville Center
04:37PM 29.6375 -81.5808 354° North 447 514 37,000  Level Jacksonville Center
04:38PM 29.7631 -81.5983 353° North 447 514 37,000  Level Jacksonville Center
04:39PM 29.8864 -81.6133 354° North 447 514 37,000  Level Jacksonville Center
04:40PM 30.0014 -81.6286 353° North 447 514 37,000  Level Jacksonville Center
04:41PM 30.1247 -81.6461 353° North 447 514 37,000  Level Jacksonville Center
04:42PM 30.2522 -81.6614 354° North 447 514 37,000  Level Jacksonville Center
04:43PM 30.3819 -81.6789 353° North 457 526 37,000  Level Jacksonville Center
04:44PM 30.5114 -81.6967 353° North 463 533 37,000  Level Jacksonville Center
04:45PM 30.6369 -81.7192 351° North 463 533 37,000  Level Jacksonville Center
04:46PM 30.7644 -81.7369 353° North 463 533 37,000  Level Jacksonville Center
04:47PM 30.8900 -81.7572 352° North 463 533 37,000  Level Jacksonville Center
04:48PM 31.0175 -81.7728 354° North 463 533 37,000  Level Jacksonville Center
04:49PM 31.1428 -81.7906 353° North 463 533 37,000  Level Jacksonville Center
04:50PM 31.2744 -81.8108 353° North 463 533 37,000  Level Jacksonville Center
04:51PM 31.3978 -81.8242 355° North 448 516 37,000  Level Jacksonville Center
04:52PM 31.5400 -81.8469 352° North 448 516 37,000  Level Jacksonville Center
04:53PM 31.6656 -81.8672 352° North 455 524 37,000  Level Jacksonville Center
04:54PM 31.7783 -81.8808 354° North 460 529 37,000  Level Jacksonville Center
04:55PM 31.9164 -81.9039 352° North 460 529 37,000  Level Jacksonville Center
04:57PM 32.1292 -81.9297 354° North 463 533 37,000  Level Atlanta Center
04:58PM 32.2569 -81.9486 353° North 458 527 37,000  Level Atlanta Center
04:59PM 32.3806 -81.9728 351° North 453 521 37,000  Level Atlanta Center
05:00PM 32.5206 -81.9917 354° North 447 514 37,000  Level Atlanta Center
05:01PM 32.6483 -82.0061 355° North 453 521 37,000 -60 Level Atlanta Center
05:02PM 32.7739 -82.0278 352° North 453 521 36,900 -660 Descending Atlanta Center
05:03PM 32.9036 -82.0447 354° North 453 521 35,700 -960 Descending Atlanta Center
05:04PM 33.0353 -82.0639 353° North 471 542 35,000 -600 Descending Atlanta Center
05:05PM 33.1692 -82.0833 353° North 471 542 34,600 -780 Descending Atlanta Center
05:06PM 33.2967 -82.1003 354° North 471 542 33,500 -1,440 Descending Atlanta Center
05:07PM 33.4264 -82.1197 353° North 466 536 31,800 -1,680 Descending Atlanta Center
05:08PM 33.5561 -82.1394 353° North 466 536 30,200 -1,440 Descending Atlanta Center
05:09PM 33.6881 -82.1564 354° North 466 536 29,000 -1,200 Descending Atlanta Center
05:10PM 33.8217 -82.1608 358° North 466 536 27,800 -1,680 Descending Atlanta Center
05:11PM 33.9447 -82.1583 North 477 549 25,700 -1,920 Descending Atlanta Center
05:12PM 34.0844 -82.1553 North 487 560 24,000 -1,500 Descending Atlanta Center
05:13PM 34.2181 -82.1572 359° North 487 560 22,700 -1,440 Descending Atlanta Center
05:14PM 34.3414 -82.1569 360° North 464 534 21,200 -1,800 Descending Atlanta Center
05:15PM 34.4625 -82.1694 355° North 447 514 19,100 -2,280 Descending Atlanta Center
05:16PM 34.5833 -82.1567 North 431 496 16,700 -2,400 Descending Atlanta Center
05:17PM 34.6956 -82.1289 12° North 424 488 14,300 -2,580 Descending Atlanta Center
05:18PM 34.8058 -82.1061 10° North 409 471 11,600 -2,400 Descending Atlanta Center
05:19PM 34.9017 -82.0911 North 378 435 9,500 -2,580 Descending Atlanta Center
05:20PM 34.9889 -82.0614 16° North 331 381 6,500 -1,860 Descending Atlanta Center
05:21PM 35.0569 -82.0139 30° Northeast 288 331 5,800 -1,020 Descending Atlanta Center
05:22PM 35.1128 -81.9922 18° North 232 267 4,500 -1,500 Descending Atlanta Center
05:23PM 35.1097 -82.0533 267° West 113 130 2,900 -900 Descending Atlanta Center
05:24PM 35.0747 -82.0897 220° Southwest 151 174 2,700 -240 Descending Atlanta Center
05:26PM 34.9463 -82.1824 231° Southwest  Level Estimated
05:33PM 34.8957 -82.2189 231° Southwest  Level Estimated
05:34PM 34.8957 -82.2189 231° Southwest  Level Estimated
05:35PM 34.8957 -82.2189 231° Southwest  Level Estimated
05:36PM 34.8957 -82.2189 231° Southwest  Level Estimated
05:37PM 34.8957 -82.2189 231° Southwest  Level Estimated